Time;durP1;ratioP1;P1;durP2;ratioP2;P2;SDS_P1;SDS_P2;PMS_P1;PMS_P2;Temp;Humidity;BMP_temperature;BMP_pressure;BME280_temperature;BME280_humidity;BME280_pressure;Samples;Min_cycle;Max_cycle;Signal;HPM_P1;HPM_P2
2023/05/24 00:01:24;;;;;;;15.00;3.47;;;22.70;54.10;;;;;;4994757;28;20125;-73
2023/05/24 00:03:57;;;;;;;12.77;3.20;;;22.60;54.20;;;;;;4995091;28;20073;-74
2023/05/24 00:06:27;;;;;;;14.15;3.05;;;22.60;53.80;;;;;;4977221;28;20061;-74
2023/05/24 00:08:53;;;;;;;15.82;3.45;;;22.60;54.30;;;;;;4994339;28;20037;-73
2023/05/24 00:11:19;;;;;;;15.35;3.20;;;22.60;53.90;;;;;;4994617;28;20034;-73
2023/05/24 00:13:45;;;;;;;17.27;3.72;;;22.60;53.50;;;;;;4994852;28;20423;-73
2023/05/24 00:16:11;;;;;;;15.02;3.38;;;22.60;53.90;;;;;;4994932;28;20026;-73
2023/05/24 00:18:40;;;;;;;14.55;3.63;;;22.60;53.30;;;;;;4993573;28;20026;-73
2023/05/24 00:21:10;;;;;;;13.98;3.25;;;22.60;53.50;;;;;;4994056;28;20058;-74
2023/05/24 00:23:37;;;;;;;13.77;2.92;;;22.60;53.30;;;;;;4994281;28;20019;-73
2023/05/24 00:26:06;;;;;;;17.60;3.47;;;22.60;52.90;;;;;;4994207;28;20366;-73
2023/05/24 00:28:33;;;;;;;11.55;2.60;;;22.60;53.10;;;;;;4993673;28;20117;-73
2023/05/24 00:30:59;;;;;;;14.10;3.40;;;22.60;53.00;;;;;;4976467;28;20396;-73
2023/05/24 00:33:26;;;;;;;17.25;3.53;;;22.60;52.70;;;;;;4994108;28;20026;-73
2023/05/24 00:35:55;;;;;;;12.13;3.20;;;22.50;51.00;;;;;;4976605;28;20448;-73
2023/05/24 00:38:25;;;;;;;12.45;2.88;;;22.60;52.60;;;;;;4993687;28;20026;-73
2023/05/24 00:40:55;;;;;;;11.88;3.45;;;22.50;51.70;;;;;;4976391;28;20034;-73
2023/05/24 00:43:21;;;;;;;10.33;3.13;;;22.50;51.50;;;;;;4993581;28;20034;-73
2023/05/24 00:45:47;;;;;;;12.07;3.10;;;22.50;52.30;;;;;;4960703;28;20413;-73
2023/05/24 00:48:13;;;;;;;12.98;2.88;;;22.50;51.70;;;;;;4975984;28;20109;-73
2023/05/24 00:50:40;;;;;;;11.52;2.83;;;22.50;51.90;;;;;;4976210;28;20026;-73
2023/05/24 00:53:08;;;;;;;11.93;2.83;;;22.50;52.00;;;;;;4976331;28;20373;-73
2023/05/24 00:55:35;;;;;;;12.27;3.10;;;22.50;51.50;;;;;;4959805;28;20493;-73
2023/05/24 00:58:01;;;;;;;13.60;3.10;;;22.50;51.30;;;;;;4975836;28;20042;-74
2023/05/24 01:00:28;;;;;;;10.40;2.70;;;22.50;51.20;;;;;;4993524;28;20037;-73
2023/05/24 01:02:54;;;;;;;8.80;2.45;;;22.50;51.60;;;;;;4993347;28;20018;-73
2023/05/24 01:05:22;;;;;;;10.43;3.08;;;22.50;51.40;;;;;;4993564;28;20030;-73
2023/05/24 01:08:22;;;;;;;11.63;2.90;;;22.50;51.60;;;;;;4975523;28;20114;-74
2023/05/24 01:11:10;;;;;;;12.25;2.90;;;22.50;51.20;;;;;;4976328;28;20385;-73
2023/05/24 01:13:47;;;;;;;10.57;2.70;;;22.50;51.40;;;;;;4959581;28;20124;-73
2023/05/24 01:16:22;;;;;;;11.40;2.90;;;22.50;51.50;;;;;;4976105;28;20030;-73
2023/05/24 01:18:55;;;;;;;10.38;2.58;;;22.50;50.10;;;;;;4992980;28;20351;-73
2023/05/24 01:21:47;;;;;;;9.95;3.05;;;22.50;50.90;;;;;;4976198;28;20026;-73
2023/05/24 01:24:54;;;;;;;10.05;2.60;;;22.50;51.10;;;;;;4958684;28;20420;-73
2023/05/24 01:27:22;;;;;;;10.82;2.97;;;22.40;51.30;;;;;;4951477;28;20039;-73
2023/05/24 01:29:52;;;;;;;11.55;2.70;;;22.50;50.90;;;;;;4951693;28;20027;-73
2023/05/24 01:32:21;;;;;;;9.77;2.67;;;22.40;51.00;;;;;;4974217;28;20087;-73
2023/05/24 01:34:47;;;;;;;14.73;3.13;;;22.50;51.00;;;;;;4997750;28;20033;-74
2023/05/24 01:37:15;;;;;;;16.50;3.15;;;22.50;51.20;;;;;;4992966;28;20026;-73
2023/05/24 01:39:41;;;;;;;8.73;2.45;;;22.50;50.90;;;;;;4975408;28;20030;-73
2023/05/24 01:42:31;;;;;;;7.60;2.40;;;22.50;51.00;;;;;;4955415;28;20039;-73
2023/05/24 01:45:13;;;;;;;9.55;2.60;;;22.50;50.70;;;;;;4972624;28;20077;-73
2023/05/24 01:47:57;;;;;;;11.07;2.78;;;22.50;51.10;;;;;;4992385;28;20073;-73
2023/05/24 01:50:39;;;;;;;10.10;2.60;;;22.40;50.90;;;;;;4959058;28;20046;-73
2023/05/24 01:53:12;;;;;;;10.73;2.67;;;22.40;50.70;;;;;;4975227;28;20034;-73
2023/05/24 01:55:39;;;;;;;9.85;2.42;;;22.40;50.40;;;;;;4975186;28;20069;-73
2023/05/24 01:58:07;;;;;;;13.88;2.40;;;22.40;50.20;;;;;;4942633;28;20476;-73
2023/05/24 02:00:33;;;;;;;12.70;3.22;;;22.40;49.80;;;;;;4974730;28;20049;-73
2023/05/24 02:03:03;;;;;;;10.15;3.00;;;22.40;50.00;;;;;;4958437;28;20030;-73
2023/05/24 02:05:31;;;;;;;11.43;2.53;;;22.40;49.80;;;;;;4959337;28;20030;-73
2023/05/24 02:07:57;;;;;;;9.70;2.47;;;22.40;50.00;;;;;;4974578;28;20062;-73
2023/05/24 02:10:23;;;;;;;12.23;2.85;;;22.40;49.60;;;;;;4974929;28;20068;-73
2023/05/24 02:12:49;;;;;;;10.73;2.97;;;22.40;49.90;;;;;;4974833;28;20566;-73
2023/05/24 02:15:15;;;;;;;11.95;3.00;;;22.40;49.60;;;;;;4974269;28;20038;-73
2023/05/24 02:17:42;;;;;;;9.90;2.63;;;22.40;50.00;;;;;;4974652;28;20034;-73
2023/05/24 02:20:08;;;;;;;10.98;2.58;;;22.40;50.10;;;;;;4974879;28;20037;-73
2023/05/24 02:22:34;;;;;;;10.40;2.55;;;22.40;49.70;;;;;;4991880;28;20035;-73
2023/05/24 02:25:00;;;;;;;10.50;2.67;;;22.40;49.60;;;;;;4991860;28;20096;-73
2023/05/24 02:27:26;;;;;;;10.13;2.65;;;22.40;49.60;;;;;;4974320;28;20451;-73
2023/05/24 02:29:51;;;;;;;8.98;2.45;;;22.40;49.80;;;;;;4974263;28;20033;-73
2023/05/24 02:32:17;;;;;;;9.80;2.95;;;22.40;49.80;;;;;;4992310;28;20481;-73
2023/05/24 02:34:43;;;;;;;12.15;2.90;;;22.40;49.60;;;;;;4974445;28;20042;-73
2023/05/24 02:37:13;;;;;;;11.00;2.67;;;22.40;49.00;;;;;;4974308;28;20033;-73
2023/05/24 02:39:40;;;;;;;9.32;2.90;;;22.40;49.50;;;;;;4974172;28;20030;-73
2023/05/24 02:42:07;;;;;;;8.50;2.67;;;22.40;49.10;;;;;;4974510;28;20030;-73
2023/05/24 02:44:34;;;;;;;8.85;2.60;;;22.40;48.80;;;;;;4974789;28;20037;-73
2023/05/24 02:46:59;;;;;;;11.52;2.78;;;22.40;49.00;;;;;;4974244;28;20408;-74
2023/05/24 02:49:25;;;;;;;10.02;2.47;;;22.40;49.20;;;;;;4974580;28;20026;-73
2023/05/24 02:51:51;;;;;;;10.77;2.75;;;22.40;49.20;;;;;;4974464;28;20023;-74
2023/05/24 02:54:17;;;;;;;9.77;2.65;;;22.40;49.00;;;;;;4974185;28;20033;-73
2023/05/24 02:56:43;;;;;;;8.70;2.55;;;22.40;49.00;;;;;;4973827;28;20023;-74
2023/05/24 02:59:10;;;;;;;10.95;3.03;;;22.40;48.70;;;;;;4991916;28;20481;-74
2023/05/24 03:01:37;;;;;;;12.23;2.80;;;22.40;49.10;;;;;;4990667;23;20098;-72
2023/05/24 03:04:02;;;;;;;9.05;2.30;;;22.40;48.80;;;;;;4973375;28;20436;-72
2023/05/24 03:06:29;;;;;;;11.23;2.70;;;22.40;48.90;;;;;;4987446;28;20037;-72
2023/05/24 03:08:57;;;;;;;9.25;2.35;;;22.40;48.60;;;;;;4989873;28;20038;-72
2023/05/24 03:11:25;;;;;;;9.57;2.53;;;22.40;48.70;;;;;;4988892;28;20034;-73
2023/05/24 03:13:50;;;;;;;10.70;2.60;;;22.30;48.70;;;;;;4965296;28;20066;-73
2023/05/24 03:16:17;;;;;;;11.43;2.60;;;22.40;48.50;;;;;;4967101;28;20027;-72
2023/05/24 03:18:45;;;;;;;10.52;2.67;;;22.30;48.50;;;;;;4973450;28;20201;-72
2023/05/24 03:21:11;;;;;;;8.25;2.25;;;22.30;48.60;;;;;;4974274;28;20388;-72
2023/05/24 03:23:39;;;;;;;9.48;2.55;;;22.30;48.50;;;;;;4968916;28;20026;-72
2023/05/24 03:26:06;;;;;;;10.98;2.88;;;22.30;48.40;;;;;;4954936;28;20037;-72
2023/05/24 03:28:32;;;;;;;11.70;3.20;;;22.30;48.30;;;;;;4941694;28;20035;-72
2023/05/24 03:30:59;;;;;;;11.82;3.10;;;22.30;48.40;;;;;;4973796;28;20031;-72
2023/05/24 03:33:25;;;;;;;11.18;3.05;;;22.30;48.50;;;;;;4971828;28;20046;-72
2023/05/24 03:35:51;;;;;;;9.27;2.90;;;22.30;48.40;;;;;;4974374;28;20038;-72
2023/05/24 03:38:17;;;;;;;9.60;2.60;;;22.30;48.40;;;;;;4973242;28;20026;-72
2023/05/24 03:40:46;;;;;;;11.30;2.65;;;22.30;48.30;;;;;;4973723;28;20484;-72
2023/05/24 03:43:16;;;;;;;;;;;22.30;48.00;;;;;;4990385;28;20049;-72
2023/05/24 03:45:47;;;;;;;12.13;2.67;;;22.30;47.80;;;;;;4969877;28;19960;-72
2023/05/24 03:48:12;;;;;;;14.18;3.42;;;22.30;47.80;;;;;;4970087;28;20027;-72
2023/05/24 03:50:38;;;;;;;11.30;2.92;;;22.30;47.90;;;;;;4973096;28;20037;-73
2023/05/24 03:53:04;;;;;;;11.23;3.03;;;22.30;47.80;;;;;;4942410;28;20436;-73
2023/05/24 03:55:30;;;;;;;12.35;2.78;;;22.30;47.50;;;;;;4987215;28;20081;-72
2023/05/24 03:57:56;;;;;;;12.40;3.03;;;22.30;47.60;;;;;;4972355;28;20404;-72
2023/05/24 04:00:22;;;;;;;13.68;3.17;;;22.30;47.50;;;;;;4990744;28;20023;-72
2023/05/24 04:02:48;;;;;;;15.98;3.60;;;22.30;47.30;;;;;;4959423;28;20038;-73
2023/05/24 04:05:14;;;;;;;9.65;3.13;;;22.20;47.10;;;;;;4973300;28;20054;-72
2023/05/24 04:07:41;;;;;;;14.05;3.53;;;22.30;47.20;;;;;;4993097;28;20029;-73
2023/05/24 04:10:07;;;;;;;10.45;3.10;;;22.30;47.10;;;;;;4991109;28;20109;-73
2023/05/24 04:12:33;;;;;;;15.25;3.10;;;22.30;47.10;;;;;;4976822;28;20382;-72
2023/05/24 04:15:00;;;;;;;14.10;3.22;;;22.20;47.20;;;;;;4992623;28;20401;-73
2023/05/24 04:17:28;;;;;;;8.90;2.70;;;22.20;47.10;;;;;;4993099;28;20061;-73
2023/05/24 04:19:54;;;;;;;11.90;2.88;;;22.30;47.10;;;;;;4975903;28;20501;-73
2023/05/24 04:22:20;;;;;;;11.38;3.15;;;22.30;47.00;;;;;;4969835;28;20032;-73
2023/05/24 04:24:48;;;;;;;12.20;3.10;;;22.20;47.00;;;;;;4976721;28;20499;-73
2023/05/24 04:27:14;;;;;;;9.43;2.85;;;22.20;46.90;;;;;;4979999;28;20034;-73
2023/05/24 04:29:41;;;;;;;9.73;2.72;;;22.30;47.30;;;;;;4991410;28;20022;-73
2023/05/24 04:32:09;;;;;;;13.13;3.25;;;22.30;47.40;;;;;;4976782;28;20110;-73
2023/05/24 04:34:34;;;;;;;11.15;2.75;;;22.20;46.90;;;;;;4992699;28;20023;-72
2023/05/24 04:37:01;;;;;;;11.27;2.83;;;22.30;47.00;;;;;;4976079;28;20097;-72
2023/05/24 04:39:29;;;;;;;12.75;3.45;;;22.30;47.00;;;;;;4992445;28;20489;-73
2023/05/24 04:41:56;;;;;;;11.73;3.20;;;22.30;46.90;;;;;;4977013;28;20259;-72
2023/05/24 04:44:23;;;;;;;11.93;3.63;;;22.30;47.10;;;;;;4975265;28;20034;-73
2023/05/24 04:46:49;;;;;;;13.73;3.95;;;22.30;47.10;;;;;;4974796;28;20448;-73
2023/05/24 04:49:15;;;;;;;16.13;3.88;;;22.30;46.90;;;;;;4993377;28;20027;-72
2023/05/24 04:51:41;;;;;;;13.60;3.20;;;22.30;47.00;;;;;;4974738;28;20031;-73
2023/05/24 04:54:09;;;;;;;14.23;2.75;;;22.30;47.00;;;;;;4974700;28;20444;-73
2023/05/24 04:56:37;;;;;;;13.65;3.65;;;22.30;47.10;;;;;;4966060;28;20037;-73
2023/05/24 04:59:04;;;;;;;10.05;2.70;;;22.30;46.90;;;;;;5009073;28;20080;-72
2023/05/24 05:01:31;;;;;;;15.32;3.75;;;22.20;47.00;;;;;;4990233;28;20130;-74
2023/05/24 05:03:57;;;;;;;15.70;3.28;;;22.20;46.80;;;;;;4962031;28;20022;-73
2023/05/24 05:06:23;;;;;;;11.43;2.42;;;22.20;47.00;;;;;;4978391;28;20027;-73
2023/05/24 05:08:50;;;;;;;15.50;3.92;;;22.20;47.10;;;;;;4974099;28;20117;-73
2023/05/24 05:11:17;;;;;;;12.15;3.10;;;22.20;46.80;;;;;;4974191;28;20508;-73
2023/05/24 05:13:44;;;;;;;11.88;3.45;;;22.20;46.90;;;;;;4992011;28;20429;-74
2023/05/24 05:16:10;;;;;;;16.58;3.55;;;22.20;46.90;;;;;;4957125;28;20459;-73
2023/05/24 05:18:36;;;;;;;15.43;3.53;;;22.20;46.70;;;;;;4970714;28;20105;-73
2023/05/24 05:21:02;;;;;;;13.57;3.80;;;22.20;46.70;;;;;;4988383;28;20080;-74
2023/05/24 05:23:29;;;;;;;9.82;3.40;;;22.20;46.90;;;;;;4974059;28;20026;-74
2023/05/24 05:25:55;;;;;;;11.88;3.50;;;22.20;46.90;;;;;;4973886;28;20074;-73
2023/05/24 05:28:21;;;;;;;12.18;3.63;;;22.20;46.90;;;;;;4993024;28;20026;-73
2023/05/24 05:30:47;;;;;;;13.80;3.67;;;22.20;46.70;;;;;;4995230;28;20030;-73
2023/05/24 05:33:13;;;;;;;12.73;3.25;;;22.20;46.70;;;;;;4996085;28;20048;-73
2023/05/24 05:35:38;;;;;;;18.80;4.10;;;22.30;46.70;;;;;;4992759;28;20049;-73
2023/05/24 05:38:04;;;;;;;14.70;3.40;;;22.20;46.60;;;;;;4975039;28;20077;-73
2023/05/24 05:40:30;;;;;;;12.43;3.28;;;22.20;46.60;;;;;;4991259;28;20033;-75
2023/05/24 05:42:56;;;;;;;12.27;3.40;;;22.20;46.60;;;;;;4992537;28;20034;-73
2023/05/24 05:45:23;;;;;;;13.05;3.72;;;22.20;46.50;;;;;;4990233;28;20455;-73
2023/05/24 05:47:48;;;;;;;12.15;3.95;;;22.30;46.70;;;;;;4974886;28;20035;-74
2023/05/24 05:50:14;;;;;;;15.45;4.15;;;22.20;46.60;;;;;;4956959;28;20026;-74
2023/05/24 05:52:40;;;;;;;12.40;3.53;;;22.20;46.40;;;;;;4973562;28;20034;-73
2023/05/24 05:55:07;;;;;;;17.13;3.38;;;22.20;46.50;;;;;;4992046;28;20045;-73
2023/05/24 05:57:33;;;;;;;16.48;4.22;;;22.20;46.50;;;;;;4977012;28;20073;-73
2023/05/24 05:59:59;;;;;;;13.63;4.20;;;22.20;46.40;;;;;;4996228;28;20388;-73
2023/05/24 06:02:25;;;;;;;18.50;5.05;;;22.20;46.50;;;;;;5010071;28;20488;-73
2023/05/24 06:04:50;;;;;;;18.35;4.10;;;22.20;46.40;;;;;;4973173;28;20027;-73
2023/05/24 06:07:16;;;;;;;13.73;3.83;;;22.20;46.50;;;;;;4972612;28;20121;-73
2023/05/24 06:09:42;;;;;;;15.48;4.20;;;22.20;46.40;;;;;;4972846;28;20034;-73
2023/05/24 06:12:08;;;;;;;15.85;4.28;;;22.20;46.50;;;;;;4973218;28;20085;-74
2023/05/24 06:14:37;;;;;;;15.48;4.35;;;22.20;46.40;;;;;;4974189;28;20027;-73
2023/05/24 06:17:06;;;;;;;14.53;4.33;;;22.20;46.40;;;;;;4972330;28;20022;-73
2023/05/24 06:19:32;;;;;;;;;;;22.10;46.30;;;;;;4974361;28;20552;-73
2023/05/24 06:21:58;;;;;;;16.50;3.90;;;22.20;46.30;;;;;;4972723;28;20103;-73
2023/05/24 06:24:24;;;;;;;13.98;4.40;;;22.20;46.40;;;;;;4973763;28;20027;-73
2023/05/24 06:26:51;;;;;;;15.50;3.97;;;22.20;46.40;;;;;;4991305;28;20043;-73
2023/05/24 06:29:21;;;;;;;16.58;4.32;;;22.20;46.20;;;;;;4974083;28;20044;-72
2023/05/24 06:31:48;;;;;;;13.15;3.95;;;22.20;46.20;;;;;;4988995;28;20034;-72
2023/05/24 06:34:19;;;;;;;17.52;4.55;;;22.20;46.40;;;;;;4993672;28;20030;-72
2023/05/24 06:36:47;;;;;;;16.10;4.18;;;22.20;46.30;;;;;;4993861;28;20167;-72
2023/05/24 06:39:14;;;;;;;16.20;4.07;;;22.20;46.40;;;;;;4974028;28;20531;-73
2023/05/24 06:41:42;;;;;;;13.40;4.15;;;22.20;46.40;;;;;;4974317;28;20026;-73
2023/05/24 06:44:08;;;;;;;13.98;4.28;;;22.20;46.50;;;;;;4974541;28;20477;-73
2023/05/24 06:46:34;;;;;;;16.90;4.45;;;22.20;46.50;;;;;;4981658;28;20528;-73
2023/05/24 06:49:00;;;;;;;17.17;4.38;;;22.20;46.50;;;;;;4975637;28;20018;-73
2023/05/24 06:51:26;;;;;;;17.23;4.53;;;22.20;46.40;;;;;;4988736;28;20484;-73
2023/05/24 06:53:52;;;;;;;16.90;4.18;;;22.20;46.50;;;;;;4965767;28;20037;-73
2023/05/24 06:56:17;;;;;;;16.00;4.78;;;22.20;46.80;;;;;;4988398;28;20050;-73
2023/05/24 06:58:43;;;;;;;17.30;4.03;;;22.20;46.70;;;;;;4983224;28;20022;-74
2023/05/24 07:01:10;;;;;;;16.55;4.72;;;22.20;46.70;;;;;;4987902;28;20504;-73
2023/05/24 07:03:36;;;;;;;17.00;4.65;;;22.20;46.80;;;;;;4988525;28;20065;-73
2023/05/24 07:06:02;;;;;;;17.58;4.45;;;22.20;46.80;;;;;;4973336;28;20030;-73
2023/05/24 07:08:28;;;;;;;13.85;4.18;;;22.20;47.00;;;;;;4987116;28;20076;-74
2023/05/24 07:10:54;;;;;;;20.08;4.78;;;22.20;47.10;;;;;;4980768;28;20113;-73
2023/05/24 07:13:21;;;;;;;18.58;5.13;;;22.20;47.10;;;;;;4991213;28;20026;-74
2023/05/24 07:15:47;;;;;;;16.42;4.38;;;22.20;46.80;;;;;;4981875;28;20540;-73
2023/05/24 07:18:13;;;;;;;22.58;4.60;;;22.20;47.30;;;;;;4952775;28;20026;-73
2023/05/24 07:20:39;;;;;;;31.30;4.90;;;22.20;47.60;;;;;;4985810;28;20033;-76
2023/05/24 07:23:05;;;;;;;21.40;4.70;;;22.20;47.00;;;;;;4986576;28;20026;-74
2023/05/24 07:25:32;;;;;;;18.30;4.95;;;22.20;48.40;;;;;;4988559;28;20416;-74
2023/05/24 07:27:59;;;;;;;18.83;4.95;;;22.20;47.00;;;;;;4987874;28;20030;-74
2023/05/24 07:30:26;;;;;;;22.10;4.50;;;22.30;47.40;;;;;;4989569;28;20029;-74
2023/05/24 07:32:52;;;;;;;24.27;4.82;;;22.20;47.80;;;;;;4989269;28;20481;-74
2023/05/24 07:35:18;;;;;;;17.92;4.38;;;22.30;48.00;;;;;;4989596;28;20101;-75
2023/05/24 07:37:43;;;;;;;19.17;4.60;;;22.30;48.40;;;;;;4989236;28;20041;-75
2023/05/24 07:40:11;;;;;;;15.75;4.00;;;22.40;49.40;;;;;;4973111;28;20101;-74
2023/05/24 07:42:37;;;;;;;30.48;5.05;;;22.40;48.40;;;;;;4948663;28;20038;-75
2023/05/24 07:45:04;;;;;;;19.17;5.00;;;22.40;48.60;;;;;;4956598;28;20093;-74
2023/05/24 07:47:30;;;;;;;20.60;4.63;;;22.40;47.90;;;;;;4952950;28;20042;-73
2023/05/24 07:49:56;;;;;;;23.95;5.32;;;22.40;48.90;;;;;;4990983;28;20049;-74
2023/05/24 07:52:22;;;;;;;35.13;5.93;;;22.40;49.60;;;;;;4992618;28;20065;-75
2023/05/24 07:54:48;;;;;;;22.25;5.25;;;22.50;49.20;;;;;;4975518;28;20401;-73
2023/05/24 07:57:13;;;;;;;25.42;5.00;;;22.50;49.80;;;;;;4985017;28;20025;-73
2023/05/24 07:59:39;;;;;;;18.33;4.55;;;22.50;48.80;;;;;;4974209;28;20036;-77
2023/05/24 08:02:10;;;;;;;25.40;4.78;;;22.50;49.80;;;;;;4973819;28;20129;-72
2023/05/24 08:04:36;;;;;;;27.08;4.82;;;22.50;48.90;;;;;;4975243;28;20038;-73
2023/05/24 08:07:03;;;;;;;18.55;4.57;;;22.60;49.00;;;;;;4990857;28;20257;-72
2023/05/24 08:09:34;;;;;;;23.83;4.95;;;22.60;49.00;;;;;;4989704;28;20023;-73
2023/05/24 08:12:07;;;;;;;21.55;4.85;;;22.50;50.50;;;;;;4992692;28;20029;-72
2023/05/24 08:14:32;;;;;;;24.08;4.55;;;22.50;51.00;;;;;;4975528;28;20050;-73
2023/05/24 08:16:59;;;;;;;44.00;4.97;;;22.60;51.10;;;;;;4992254;28;20443;-73
2023/05/24 08:19:26;;;;;;;24.30;4.25;;;22.60;51.30;;;;;;4991883;28;20034;-72
2023/05/24 08:21:56;;;;;;;15.55;4.20;;;22.60;50.80;;;;;;4975122;28;20054;-72
2023/05/24 08:24:22;;;;;;;23.17;4.38;;;22.60;50.10;;;;;;4971868;28;20026;-73
2023/05/24 08:26:50;;;;;;;27.55;4.72;;;22.60;50.80;;;;;;4975541;28;20076;-72
2023/05/24 08:29:17;;;;;;;18.48;4.78;;;22.60;50.30;;;;;;4993450;28;20098;-74
2023/05/24 08:31:43;;;;;;;16.98;4.00;;;22.60;50.40;;;;;;5012084;28;20105;-72
2023/05/24 08:34:09;;;;;;;19.08;4.20;;;22.60;50.20;;;;;;5011974;28;20129;-73
2023/05/24 08:36:36;;;;;;;21.20;4.78;;;22.60;50.20;;;;;;5011576;28;20052;-73
2023/05/24 08:39:03;;;;;;;17.35;3.70;;;22.60;50.30;;;;;;5011590;28;20030;-73
2023/05/24 08:41:31;;;;;;;15.43;4.22;;;22.50;50.30;;;;;;5012099;28;20072;-73
2023/05/24 08:44:01;;;;;;;16.73;4.45;;;22.50;50.40;;;;;;4994157;28;20084;-73
2023/05/24 08:46:28;;;;;;;15.05;4.05;;;22.60;50.50;;;;;;5011943;28;20026;-73
2023/05/24 08:48:56;;;;;;;14.10;3.72;;;22.50;50.50;;;;;;4993869;28;20030;-71
2023/05/24 08:51:23;;;;;;;18.73;4.10;;;22.50;50.30;;;;;;5011743;28;20507;-72
2023/05/24 08:53:50;;;;;;;13.85;3.65;;;22.50;50.50;;;;;;5011718;28;20044;-72
2023/05/24 08:56:17;;;;;;;19.60;4.22;;;22.50;50.50;;;;;;5011363;28;20037;-72
2023/05/24 08:58:44;;;;;;;16.55;3.88;;;22.50;50.70;;;;;;4993563;28;20365;-72
2023/05/24 09:01:13;;;;;;;14.68;4.10;;;22.50;50.50;;;;;;5011204;28;20060;-72
2023/05/24 09:03:41;;;;;;;14.07;3.80;;;22.50;50.70;;;;;;5011489;28;20056;-73
2023/05/24 09:06:08;;;;;;;16.77;4.18;;;22.50;50.60;;;;;;5011323;28;20084;-73
2023/05/24 09:08:36;;;;;;;14.02;3.63;;;22.50;50.50;;;;;;5009826;28;20038;-73
2023/05/24 09:11:03;;;;;;;13.10;3.75;;;22.50;50.60;;;;;;5011224;28;20785;-73
2023/05/24 09:13:30;;;;;;;12.35;3.25;;;22.50;50.90;;;;;;5011257;28;20029;-73
2023/05/24 09:15:58;;;;;;;11.30;3.17;;;22.50;50.80;;;;;;5011422;28;20073;-73
2023/05/24 09:18:24;;;;;;;15.77;3.95;;;22.50;50.80;;;;;;5010704;28;20040;-73
2023/05/24 09:20:50;;;;;;;26.52;3.85;;;22.50;51.10;;;;;;5011494;28;20022;-73
2023/05/24 09:23:17;;;;;;;21.42;3.95;;;22.60;51.40;;;;;;5010699;28;20649;-75
2023/05/24 09:25:47;;;;;;;11.98;3.55;;;22.50;51.70;;;;;;5010757;28;20038;-75
2023/05/24 09:28:15;;;;;;;20.58;3.45;;;22.50;50.60;;;;;;5010340;28;20034;-75
2023/05/24 09:30:56;;;;;;;18.17;3.97;;;22.40;49.50;;;;;;5009618;28;20033;-76
2023/05/24 09:33:22;;;;;;;18.02;3.78;;;22.40;49.00;;;;;;5010778;28;20105;-75
2023/05/24 09:35:48;;;;;;;13.95;3.70;;;22.40;49.50;;;;;;4993037;28;20036;-75
2023/05/24 09:38:18;;;;;;;18.83;3.90;;;22.30;49.10;;;;;;5010231;28;20025;-76
2023/05/24 09:40:44;;;;;;;19.80;4.00;;;22.40;49.00;;;;;;5010711;28;20026;-76
2023/05/24 09:43:10;;;;;;;12.48;3.50;;;22.30;48.70;;;;;;5010399;28;20018;-75
2023/05/24 09:45:46;;;;;;;16.27;4.05;;;22.30;48.10;;;;;;4992910;28;20033;-75
2023/05/24 09:48:13;;;;;;;16.25;4.00;;;22.30;47.80;;;;;;5009435;28;20088;-75
2023/05/24 09:50:39;;;;;;;18.88;3.67;;;22.30;48.30;;;;;;5009732;28;20040;-74
2023/05/24 09:53:06;;;;;;;14.07;4.03;;;22.30;48.50;;;;;;4975603;23;20120;-73
2023/05/24 09:55:35;;;;;;;13.05;3.58;;;22.30;48.10;;;;;;4936647;28;20046;-74
2023/05/24 09:58:07;;;;;;;12.80;3.40;;;22.30;47.60;;;;;;4953087;28;20038;-73
2023/05/24 10:00:42;;;;;;;14.88;4.05;;;22.30;47.70;;;;;;4953984;28;20036;-73
2023/05/24 10:03:10;;;;;;;14.82;3.67;;;22.30;46.90;;;;;;4952995;28;20081;-73
2023/05/24 10:05:37;;;;;;;18.52;4.13;;;22.30;47.50;;;;;;4970891;28;20031;-73
2023/05/24 10:08:08;;;;;;;19.45;3.85;;;22.30;47.80;;;;;;4953643;28;20042;-79
2023/05/24 10:10:34;;;;;;;17.10;3.58;;;22.20;47.00;;;;;;4971028;28;20031;-75
2023/05/24 10:13:01;;;;;;;21.25;3.70;;;22.20;46.50;;;;;;4953950;28;20045;-74
2023/05/24 10:15:27;;;;;;;21.40;4.40;;;22.20;46.70;;;;;;4952954;28;20121;-74
2023/05/24 10:17:54;;;;;;;11.85;3.50;;;22.20;47.20;;;;;;4970789;28;20030;-74
2023/05/24 10:20:22;;;;;;;12.45;3.28;;;22.20;47.80;;;;;;4970673;28;20031;-74
2023/05/24 10:22:52;;;;;;;11.88;3.58;;;22.30;47.80;;;;;;4970732;28;20106;-74
2023/05/24 10:25:24;;;;;;;15.73;3.70;;;22.30;48.10;;;;;;4970907;28;20022;-74
2023/05/24 10:27:57;;;;;;;12.77;3.60;;;22.30;47.80;;;;;;4971058;28;20477;-74
2023/05/24 10:30:31;;;;;;;15.52;3.60;;;22.30;48.20;;;;;;4953433;28;20027;-73
2023/05/24 10:32:59;;;;;;;13.15;2.92;;;22.30;48.00;;;;;;4970826;28;20039;-73
2023/05/24 10:35:26;;;;;;;13.65;3.20;;;22.30;48.30;;;;;;4970632;28;20134;-73
2023/05/24 10:37:53;;;;;;;12.07;3.58;;;22.30;48.50;;;;;;4937253;28;20043;-73
2023/05/24 10:40:21;;;;;;;15.25;3.50;;;22.30;48.60;;;;;;4970790;28;20019;-74
2023/05/24 10:42:47;;;;;;;10.82;3.20;;;22.30;48.60;;;;;;4937625;28;20073;-74
2023/05/24 10:45:34;;;;;;;13.27;3.47;;;22.30;48.60;;;;;;4970858;28;20036;-74
2023/05/24 10:48:06;;;;;;;13.07;3.33;;;22.30;48.80;;;;;;4970285;28;20492;-74
2023/05/24 10:50:32;;;;;;;14.43;3.55;;;22.30;48.70;;;;;;4953461;28;20150;-73
2023/05/24 10:53:21;;;;;;;17.15;3.72;;;22.30;49.40;;;;;;4921320;28;20496;-73
2023/05/24 10:56:08;;;;;;;18.92;3.08;;;22.30;49.20;;;;;;4937356;28;20495;-72
2023/05/24 10:58:45;;;;;;;9.98;3.40;;;22.40;49.20;;;;;;4970492;28;20034;-73
2023/05/24 11:01:33;;;;;;;13.70;3.42;;;22.40;49.30;;;;;;4937384;28;20058;-73
2023/05/24 11:04:10;;;;;;;10.02;2.58;;;22.40;49.50;;;;;;4953245;28;20031;-73
2023/05/24 11:06:57;;;;;;;12.30;3.17;;;22.40;49.50;;;;;;4970376;28;20039;-73
2023/05/24 11:09:23;;;;;;;9.23;3.05;;;22.40;49.50;;;;;;4953336;28;20045;-73
2023/05/24 11:11:54;;;;;;;9.98;3.22;;;22.40;49.50;;;;;;4989778;28;20042;-73
2023/05/24 11:14:27;;;;;;;10.27;2.90;;;22.40;49.50;;;;;;4974381;28;20061;-73
2023/05/24 11:16:54;;;;;;;14.88;2.80;;;22.40;49.50;;;;;;4993543;28;20030;-72
2023/05/24 11:19:22;;;;;;;8.45;2.70;;;22.40;49.80;;;;;;4976367;28;20116;-72
2023/05/24 11:21:52;;;;;;;9.18;2.83;;;22.40;49.80;;;;;;4976277;28;20034;-72
2023/05/24 11:24:19;;;;;;;11.45;3.08;;;22.40;49.70;;;;;;4993709;28;20110;-72
2023/05/24 11:26:45;;;;;;;12.07;3.55;;;22.40;50.00;;;;;;4960155;28;20067;-72
2023/05/24 11:29:16;;;;;;;10.20;2.75;;;22.40;50.00;;;;;;4992172;28;20516;-72
2023/05/24 11:32:08;;;;;;;7.18;2.88;;;22.40;49.70;;;;;;4976051;28;20403;-72
2023/05/24 11:34:34;;;;;;;9.63;3.03;;;22.40;50.30;;;;;;4976269;28;20081;-73
2023/05/24 11:37:01;;;;;;;8.60;3.03;;;22.40;50.20;;;;;;4975592;28;20030;-73
2023/05/24 11:39:34;;;;;;;11.15;3.10;;;22.40;49.80;;;;;;4993572;28;20046;-72
2023/05/24 11:42:03;;;;;;;11.80;3.17;;;22.40;50.00;;;;;;4975861;28;20041;-72
2023/05/24 11:44:31;;;;;;;11.85;2.97;;;22.50;50.20;;;;;;4992038;28;20030;-72
2023/05/24 11:47:02;;;;;;;11.05;2.83;;;22.50;50.30;;;;;;4975285;28;20507;-72
2023/05/24 11:49:28;;;;;;;10.75;3.28;;;22.40;50.00;;;;;;4993385;28;20057;-72
2023/05/24 11:51:58;;;;;;;10.82;3.22;;;22.50;50.00;;;;;;4975736;28;20104;-72
2023/05/24 11:54:25;;;;;;;12.05;3.28;;;22.40;50.40;;;;;;4991744;28;20030;-74
2023/05/24 11:56:53;;;;;;;11.98;3.40;;;22.50;50.60;;;;;;4975305;28;20050;-75
2023/05/24 11:59:26;;;;;;;10.40;3.45;;;22.50;50.60;;;;;;4992806;28;20026;-72
2023/05/24 12:02:00;;;;;;;11.77;3.40;;;22.40;49.00;;;;;;4993113;28;20057;-72
2023/05/24 12:04:27;;;;;;;17.13;3.40;;;22.40;49.30;;;;;;4959607;28;20394;-73
2023/05/24 12:06:54;;;;;;;15.85;3.00;;;22.30;49.30;;;;;;4992649;28;20031;-72
2023/05/24 12:09:20;;;;;;;13.23;3.00;;;22.40;49.20;;;;;;4991759;28;20042;-72
2023/05/24 12:11:47;;;;;;;12.52;2.85;;;22.40;49.30;;;;;;4992742;28;20504;-72
2023/05/24 12:14:14;;;;;;;24.48;3.08;;;22.40;49.50;;;;;;4959590;28;20548;-73
2023/05/24 12:16:44;;;;;;;11.88;3.13;;;22.40;48.90;;;;;;4992659;28;20396;-72
2023/05/24 12:19:20;;;;;;;10.02;2.88;;;22.40;49.40;;;;;;4992626;28;20034;-72
2023/05/24 12:21:48;;;;;;;10.00;2.75;;;22.40;49.00;;;;;;4975279;28;20038;-72
2023/05/24 12:24:15;;;;;;;14.10;3.13;;;22.40;49.20;;;;;;4975466;28;20444;-72
2023/05/24 12:26:50;;;;;;;10.65;3.10;;;22.40;49.10;;;;;;4992203;28;20389;-72
2023/05/24 12:29:19;;;;;;;7.90;2.88;;;22.40;49.20;;;;;;4992576;28;20044;-72
2023/05/24 12:31:47;;;;;;;9.18;2.78;;;22.40;49.20;;;;;;4992297;28;20477;-72
2023/05/24 12:34:18;;;;;;;8.27;2.45;;;22.40;49.30;;;;;;4992900;28;20037;-72
2023/05/24 12:36:45;;;;;;;9.63;2.97;;;22.40;49.40;;;;;;4974665;28;20027;-72
2023/05/24 12:39:17;;;;;;;7.75;2.70;;;22.40;49.40;;;;;;4992293;28;20066;-72
2023/05/24 12:41:44;;;;;;;10.90;2.80;;;22.40;49.40;;;;;;4992063;28;20410;-72
2023/05/24 12:44:11;;;;;;;12.20;2.88;;;22.40;49.40;;;;;;4975181;28;20038;-72